sensor_id;sensor_type;location;lat;lon;timestamp;pressure;altitude;pressure_sealevel;temperature;humidity
68329;BME280;55182;56.864;60.554;2023-03-23T00:01:59;75994.13;;;-143.60;73.87
68329;BME280;55182;56.864;60.554;2023-03-23T00:04:24;76000.16;;;-143.60;73.83
68329;BME280;55182;56.864;60.554;2023-03-23T00:06:49;76004.19;;;-143.60;73.49
68329;BME280;55182;56.864;60.554;2023-03-23T00:09:15;76004.19;;;-143.60;73.47
68329;BME280;55182;56.864;60.554;2023-03-23T00:11:41;76012.22;;;-143.60;73.48
68329;BME280;55182;56.864;60.554;2023-03-23T00:14:07;76012.22;;;-143.60;73.72
68329;BME280;55182;56.864;60.554;2023-03-23T00:16:33;76022.25;;;-143.60;73.78
68329;BME280;55182;56.864;60.554;2023-03-23T00:18:59;76030.31;;;-143.60;73.83
68329;BME280;55182;56.864;60.554;2023-03-23T00:21:27;76034.31;;;-143.60;74.06
68329;BME280;55182;56.864;60.554;2023-03-23T00:23:53;76038.34;;;-143.60;74.23
68329;BME280;55182;56.864;60.554;2023-03-23T00:26:18;76046.38;;;-143.60;74.27
68329;BME280;55182;56.864;60.554;2023-03-23T00:28:44;76058.44;;;-143.60;74.23
68329;BME280;55182;56.864;60.554;2023-03-23T00:31:11;76062.44;;;-143.60;74.44
68329;BME280;55182;56.864;60.554;2023-03-23T00:33:36;76074.50;;;-143.60;74.76
68329;BME280;55182;56.864;60.554;2023-03-23T00:36:04;76084.56;;;-143.60;75.13
68329;BME280;55182;56.864;60.554;2023-03-23T00:38:30;76096.59;;;-143.60;75.21
68329;BME280;55182;56.864;60.554;2023-03-23T00:40:55;76102.63;;;-143.60;75.28
68329;BME280;55182;56.864;60.554;2023-03-23T00:43:21;76104.66;;;-143.60;75.61
68329;BME280;55182;56.864;60.554;2023-03-23T00:45:46;76110.69;;;-143.60;75.67
68329;BME280;55182;56.864;60.554;2023-03-23T00:48:12;76114.69;;;-143.60;76.01
68329;BME280;55182;56.864;60.554;2023-03-23T00:50:38;76116.69;;;-143.60;76.02
68329;BME280;55182;56.864;60.554;2023-03-23T00:53:04;76122.72;;;-143.60;76.20
68329;BME280;55182;56.864;60.554;2023-03-23T00:55:30;76122.72;;;-143.60;76.20
68329;BME280;55182;56.864;60.554;2023-03-23T00:57:55;76118.72;;;-143.60;75.93
68329;BME280;55182;56.864;60.554;2023-03-23T01:00:21;76112.69;;;-143.60;75.78
68329;BME280;55182;56.864;60.554;2023-03-23T01:02:47;76116.69;;;-143.60;75.58
68329;BME280;55182;56.864;60.554;2023-03-23T01:05:12;76122.72;;;-143.60;75.83
68329;BME280;55182;56.864;60.554;2023-03-23T01:07:38;76126.75;;;-143.60;75.81
68329;BME280;55182;56.864;60.554;2023-03-23T01:10:04;76128.75;;;-143.60;75.97
68329;BME280;55182;56.864;60.554;2023-03-23T01:12:30;76132.78;;;-143.60;75.80
68329;BME280;55182;56.864;60.554;2023-03-23T01:14:55;76138.81;;;-143.60;75.89
68329;BME280;55182;56.864;60.554;2023-03-23T01:17:21;76144.84;;;-143.60;75.81
68329;BME280;55182;56.864;60.554;2023-03-23T01:19:47;76138.81;;;-143.60;76.06
68329;BME280;55182;56.864;60.554;2023-03-23T01:22:12;76148.84;;;-143.60;75.52
68329;BME280;55182;56.864;60.554;2023-03-23T01:24:38;76152.88;;;-143.60;75.63
68329;BME280;55182;56.864;60.554;2023-03-23T01:27:03;76154.88;;;-143.60;75.81
68329;BME280;55182;56.864;60.554;2023-03-23T01:29:29;76160.91;;;-143.60;75.70
68329;BME280;55182;56.864;60.554;2023-03-23T01:31:55;76162.91;;;-143.60;75.75
68329;BME280;55182;56.864;60.554;2023-03-23T01:34:20;76166.94;;;-143.60;75.74
68329;BME280;55182;56.864;60.554;2023-03-23T01:36:46;76164.94;;;-143.60;75.58
68329;BME280;55182;56.864;60.554;2023-03-23T01:39:12;76170.97;;;-143.60;75.86
68329;BME280;55182;56.864;60.554;2023-03-23T01:41:37;76183.03;;;-143.60;75.79
68329;BME280;55182;56.864;60.554;2023-03-23T01:44:59;76195.06;;;-143.60;76.15
68329;BME280;55182;56.864;60.554;2023-03-23T01:47:13;76199.09;;;-143.60;76.05
68329;BME280;55182;56.864;60.554;2023-03-23T01:49:42;76197.09;;;-143.60;75.97
68329;BME280;55182;56.864;60.554;2023-03-23T01:52:13;76211.16;;;-143.60;75.88
68329;BME280;55182;56.864;60.554;2023-03-23T01:54:40;76207.13;;;-143.60;76.22
68329;BME280;55182;56.864;60.554;2023-03-23T01:57:09;76209.13;;;-143.60;75.94
68329;BME280;55182;56.864;60.554;2023-03-23T01:59:36;76219.19;;;-143.60;76.12
68329;BME280;55182;56.864;60.554;2023-03-23T02:02:22;76219.19;;;-143.60;76.28
68329;BME280;55182;56.864;60.554;2023-03-23T02:04:49;76223.22;;;-143.60;76.43
68329;BME280;55182;56.864;60.554;2023-03-23T02:07:15;76231.25;;;-143.60;76.52
68329;BME280;55182;56.864;60.554;2023-03-23T02:09:42;76235.25;;;-143.60;76.54
68329;BME280;55182;56.864;60.554;2023-03-23T02:12:08;76239.28;;;-143.60;76.49
68329;BME280;55182;56.864;60.554;2023-03-23T02:14:36;76241.28;;;-143.60;76.58
68329;BME280;55182;56.864;60.554;2023-03-23T02:35:37;76267.41;;;-143.60;78.08
68329;BME280;55182;56.864;60.554;2023-03-23T02:38:06;76267.41;;;-143.60;77.76
68329;BME280;55182;56.864;60.554;2023-03-23T02:40:41;76255.34;;;-143.60;77.27
68329;BME280;55182;56.864;60.554;2023-03-23T02:43:09;76263.41;;;-143.60;77.19
68329;BME280;55182;56.864;60.554;2023-03-23T02:45:36;76255.34;;;-143.60;76.86
68329;BME280;55182;56.864;60.554;2023-03-23T02:48:03;76247.31;;;-143.60;76.82
68329;BME280;55182;56.864;60.554;2023-03-23T02:50:30;76249.34;;;-143.60;76.79
68329;BME280;55182;56.864;60.554;2023-03-23T02:52:56;76247.31;;;-143.60;76.98
68329;BME280;55182;56.864;60.554;2023-03-23T02:55:22;76267.41;;;-143.60;77.40
68329;BME280;55182;56.864;60.554;2023-03-23T02:57:48;76263.41;;;-143.60;76.78
68329;BME280;55182;56.864;60.554;2023-03-23T03:00:16;76267.41;;;-143.60;76.72
68329;BME280;55182;56.864;60.554;2023-03-23T03:02:43;76265.41;;;-143.60;76.64
68329;BME280;55182;56.864;60.554;2023-03-23T03:07:49;76265.41;;;-143.60;76.49
68329;BME280;55182;56.864;60.554;2023-03-23T03:10:25;76265.41;;;-143.60;76.27
68329;BME280;55182;56.864;60.554;2023-03-23T03:12:55;76257.38;;;-143.60;76.04
68329;BME280;55182;56.864;60.554;2023-03-23T03:15:37;76263.41;;;-143.60;76.36
68329;BME280;55182;56.864;60.554;2023-03-23T03:18:14;76267.41;;;-143.60;76.21
68329;BME280;55182;56.864;60.554;2023-03-23T03:20:52;76259.38;;;-143.60;76.11
68329;BME280;55182;56.864;60.554;2023-03-23T03:23:23;76261.38;;;-143.60;76.29
68329;BME280;55182;56.864;60.554;2023-03-23T03:25:53;76267.41;;;-143.60;76.28
68329;BME280;55182;56.864;60.554;2023-03-23T03:28:28;76267.41;;;-143.60;76.07
68329;BME280;55182;56.864;60.554;2023-03-23T03:30:56;76259.38;;;-143.60;75.94
68329;BME280;55182;56.864;60.554;2023-03-23T03:33:22;76255.34;;;-143.60;75.47
68329;BME280;55182;56.864;60.554;2023-03-23T03:35:49;76243.31;;;-143.60;74.94
68329;BME280;55182;56.864;60.554;2023-03-23T03:38:15;76231.25;;;-143.60;74.48
68329;BME280;55182;56.864;60.554;2023-03-23T03:40:41;76227.22;;;-143.60;74.06
68329;BME280;55182;56.864;60.554;2023-03-23T03:43:06;76219.19;;;-143.60;73.84
68329;BME280;55182;56.864;60.554;2023-03-23T03:45:32;76215.16;;;-143.60;73.70
68329;BME280;55182;56.864;60.554;2023-03-23T03:47:58;76203.13;;;-143.60;73.26
68329;BME280;55182;56.864;60.554;2023-03-23T03:50:23;76199.09;;;-143.60;73.10
68329;BME280;55182;56.864;60.554;2023-03-23T03:52:49;76203.13;;;-143.60;72.31
68329;BME280;55182;56.864;60.554;2023-03-23T03:55:14;76191.06;;;-143.60;71.87
68329;BME280;55182;56.864;60.554;2023-03-23T03:57:44;76183.03;;;-143.60;71.19
68329;BME280;55182;56.864;60.554;2023-03-23T04:00:44;76170.97;;;-143.60;70.54
68329;BME280;55182;56.864;60.554;2023-03-23T04:03:10;76174.97;;;-143.60;70.88
68329;BME280;55182;56.864;60.554;2023-03-23T04:06:05;76174.97;;;-143.60;70.58
68329;BME280;55182;56.864;60.554;2023-03-23T04:08:32;76162.91;;;-143.60;69.74
68329;BME280;55182;56.864;60.554;2023-03-23T04:10:58;76166.94;;;-143.60;69.95
68329;BME280;55182;56.864;60.554;2023-03-23T04:13:26;76160.91;;;-143.60;69.21
68329;BME280;55182;56.864;60.554;2023-03-23T04:16:14;76146.84;;;-143.60;68.67
68329;BME280;55182;56.864;60.554;2023-03-23T04:18:40;76146.84;;;-143.60;68.49
68329;BME280;55182;56.864;60.554;2023-03-23T04:21:06;76142.81;;;-143.60;68.40
68329;BME280;55182;56.864;60.554;2023-03-23T04:23:32;76140.81;;;-143.60;68.07
68329;BME280;55182;56.864;60.554;2023-03-23T04:26:00;76146.84;;;-143.60;67.78
68329;BME280;55182;56.864;60.554;2023-03-23T04:28:33;76150.88;;;-143.60;67.00
68329;BME280;55182;56.864;60.554;2023-03-23T04:31:17;76146.84;;;-143.60;67.64
68329;BME280;55182;56.864;60.554;2023-03-23T04:33:48;76146.84;;;-143.60;66.60
68329;BME280;55182;56.864;60.554;2023-03-23T04:36:14;76144.84;;;-143.60;67.18
68329;BME280;55182;56.864;60.554;2023-03-23T04:38:46;76138.81;;;-143.60;66.52
68329;BME280;55182;56.864;60.554;2023-03-23T04:41:19;76122.72;;;-143.60;65.57
68329;BME280;55182;56.864;60.554;2023-03-23T04:43:57;76118.72;;;-143.60;64.86
68329;BME280;55182;56.864;60.554;2023-03-23T04:46:27;76110.69;;;-143.60;64.54
68329;BME280;55182;56.864;60.554;2023-03-23T04:48:53;76120.72;;;-143.60;64.90
68329;BME280;55182;56.864;60.554;2023-03-23T04:51:23;76124.75;;;-143.60;64.94
68329;BME280;55182;56.864;60.554;2023-03-23T04:53:50;76118.72;;;-143.60;64.02
68329;BME280;55182;56.864;60.554;2023-03-23T04:56:16;76118.72;;;-143.60;63.43
68329;BME280;55182;56.864;60.554;2023-03-23T04:58:44;76118.72;;;-143.60;63.12
68329;BME280;55182;56.864;60.554;2023-03-23T05:01:20;76104.66;;;-143.60;62.70
68329;BME280;55182;56.864;60.554;2023-03-23T05:04:04;76106.66;;;-143.60;62.82
68329;BME280;55182;56.864;60.554;2023-03-23T05:06:31;76094.59;;;-143.60;61.45
68329;BME280;55182;56.864;60.554;2023-03-23T05:09:01;76090.59;;;-143.60;60.34
68329;BME280;55182;56.864;60.554;2023-03-23T05:11:28;76076.50;;;-143.60;59.70
68329;BME280;55182;56.864;60.554;2023-03-23T05:13:56;76070.50;;;-143.60;59.35
68329;BME280;55182;56.864;60.554;2023-03-23T05:16:22;76066.47;;;-143.60;58.54
68329;BME280;55182;56.864;60.554;2023-03-23T05:18:48;76058.44;;;-143.60;57.39
68329;BME280;55182;56.864;60.554;2023-03-23T05:21:16;76056.41;;;-143.60;57.80
68329;BME280;55182;56.864;60.554;2023-03-23T05:23:47;76048.38;;;-143.60;57.29
68329;BME280;55182;56.864;60.554;2023-03-23T05:26:20;76046.38;;;-143.60;56.25
68329;BME280;55182;56.864;60.554;2023-03-23T05:28:46;76030.31;;;-143.60;55.25
68329;BME280;55182;56.864;60.554;2023-03-23T05:31:18;76024.28;;;-143.60;55.01
68329;BME280;55182;56.864;60.554;2023-03-23T05:33:44;76008.19;;;-143.60;53.51
68329;BME280;55182;56.864;60.554;2023-03-23T05:36:33;75990.09;;;-143.60;53.32
68329;BME280;55182;56.864;60.554;2023-03-23T05:39:07;75996.13;;;-143.60;52.98
68329;BME280;55182;56.864;60.554;2023-03-23T05:41:51;75961.97;;;-143.60;51.63
68329;BME280;55182;56.864;60.554;2023-03-23T05:44:17;75957.97;;;-143.60;50.86
68329;BME280;55182;56.864;60.554;2023-03-23T05:46:49;75947.91;;;-143.60;49.10
68329;BME280;55182;56.864;60.554;2023-03-23T05:49:16;75953.94;;;-143.60;48.17
68329;BME280;55182;56.864;60.554;2023-03-23T05:51:43;75945.91;;;-143.60;49.16
68329;BME280;55182;56.864;60.554;2023-03-23T05:54:10;75949.91;;;-143.60;48.14
68329;BME280;55182;56.864;60.554;2023-03-23T05:56:37;75943.91;;;-143.60;48.31
68329;BME280;55182;56.864;60.554;2023-03-23T05:59:21;75935.84;;;-143.60;47.42
68329;BME280;55182;56.864;60.554;2023-03-23T06:01:51;75937.88;;;-143.60;47.36
68329;BME280;55182;56.864;60.554;2023-03-23T06:04:17;75931.84;;;-143.60;47.63
68329;BME280;55182;56.864;60.554;2023-03-23T06:06:53;75919.78;;;-143.60;48.84
68329;BME280;55182;56.864;60.554;2023-03-23T06:09:19;75909.72;;;-143.60;48.13
68329;BME280;55182;56.864;60.554;2023-03-23T06:12:05;75887.63;;;-143.60;46.84
68329;BME280;55182;56.864;60.554;2023-03-23T06:14:47;75871.56;;;-143.60;47.80
68329;BME280;55182;56.864;60.554;2023-03-23T06:17:15;75853.47;;;-143.60;45.91
68329;BME280;55182;56.864;60.554;2023-03-23T06:19:40;75825.34;;;-143.60;46.37
68329;BME280;55182;56.864;60.554;2023-03-23T06:22:11;75801.22;;;-143.60;45.72
68329;BME280;55182;56.864;60.554;2023-03-23T06:24:55;75785.16;;;-143.60;44.89
68329;BME280;55182;56.864;60.554;2023-03-23T06:27:26;75777.13;;;-143.60;44.19
68329;BME280;55182;56.864;60.554;2023-03-23T06:29:54;75773.09;;;-143.60;42.80
68329;BME280;55182;56.864;60.554;2023-03-23T06:32:19;75781.13;;;-143.60;42.58
68329;BME280;55182;56.864;60.554;2023-03-23T06:34:46;75763.06;;;-143.60;41.93
68329;BME280;55182;56.864;60.554;2023-03-23T06:37:30;75753.00;;;-143.60;41.85
68329;BME280;55182;56.864;60.554;2023-03-23T06:40:16;75744.97;;;-143.60;42.10
68329;BME280;55182;56.864;60.554;2023-03-23T06:42:46;75732.91;;;-143.60;41.47
68329;BME280;55182;56.864;60.554;2023-03-23T06:45:31;75728.91;;;-143.60;39.70
68329;BME280;55182;56.864;60.554;2023-03-23T06:48:15;75724.88;;;-143.60;39.81
68329;BME280;55182;56.864;60.554;2023-03-23T06:50:43;75708.81;;;-143.60;39.88
68329;BME280;55182;56.864;60.554;2023-03-23T06:53:09;75700.75;;;-143.60;40.20
68329;BME280;55182;56.864;60.554;2023-03-23T06:55:34;75700.75;;;-143.60;40.37
68329;BME280;55182;56.864;60.554;2023-03-23T06:58:02;75706.78;;;-143.60;39.53
68329;BME280;55182;56.864;60.554;2023-03-23T07:00:28;75716.84;;;-143.60;39.68
68329;BME280;55182;56.864;60.554;2023-03-23T07:02:53;75708.81;;;-143.60;39.47
68329;BME280;55182;56.864;60.554;2023-03-23T07:05:19;75700.75;;;-143.60;39.22
68329;BME280;55182;56.864;60.554;2023-03-23T07:07:44;75676.66;;;-143.60;40.02
68329;BME280;55182;56.864;60.554;2023-03-23T07:10:23;75662.59;;;-143.60;39.86
68329;BME280;55182;56.864;60.554;2023-03-23T07:12:48;75648.53;;;-143.60;39.27
68329;BME280;55182;56.864;60.554;2023-03-23T07:15:14;75632.44;;;-143.60;40.13
68329;BME280;55182;56.864;60.554;2023-03-23T07:17:44;75630.44;;;-143.60;39.43
68329;BME280;55182;56.864;60.554;2023-03-23T07:20:16;75644.50;;;-143.60;39.79
68329;BME280;55182;56.864;60.554;2023-03-23T07:22:42;75658.56;;;-143.60;39.25
68329;BME280;55182;56.864;60.554;2023-03-23T07:25:23;75656.56;;;-143.60;40.15
68329;BME280;55182;56.864;60.554;2023-03-23T07:27:52;75668.63;;;-143.60;39.50
68329;BME280;55182;56.864;60.554;2023-03-23T07:30:17;75660.59;;;-143.60;39.35
68329;BME280;55182;56.864;60.554;2023-03-23T07:32:43;75656.56;;;-143.60;39.84
68329;BME280;55182;56.864;60.554;2023-03-23T07:35:08;75636.47;;;-143.60;38.71
68329;BME280;55182;56.864;60.554;2023-03-23T07:37:45;75624.41;;;-143.60;39.60
68329;BME280;55182;56.864;60.554;2023-03-23T07:40:11;75600.31;;;-143.60;38.71
68329;BME280;55182;56.864;60.554;2023-03-23T07:42:37;75588.25;;;-143.60;37.78
68329;BME280;55182;56.864;60.554;2023-03-23T07:45:03;75562.13;;;-143.60;37.22
68329;BME280;55182;56.864;60.554;2023-03-23T07:47:29;75540.03;;;-143.60;37.73
68329;BME280;55182;56.864;60.554;2023-03-23T07:49:55;75527.97;;;-143.60;37.40
68329;BME280;55182;56.864;60.554;2023-03-23T07:52:46;75519.94;;;-143.60;38.68
68329;BME280;55182;56.864;60.554;2023-03-23T07:55:18;75507.88;;;-143.60;37.27
68329;BME280;55182;56.864;60.554;2023-03-23T07:57:55;75501.84;;;-143.60;36.99
68329;BME280;55182;56.864;60.554;2023-03-23T08:00:21;75499.84;;;-143.60;38.81
68329;BME280;55182;56.864;60.554;2023-03-23T08:02:47;75497.84;;;-143.60;37.43
68329;BME280;55182;56.864;60.554;2023-03-23T08:05:40;75493.81;;;-143.60;37.01
68329;BME280;55182;56.864;60.554;2023-03-23T08:08:25;75497.84;;;-143.60;37.30
68329;BME280;55182;56.864;60.554;2023-03-23T08:11:09;75477.75;;;-143.60;36.85
68329;BME280;55182;56.864;60.554;2023-03-23T08:13:54;75471.72;;;-143.60;36.83
68329;BME280;55182;56.864;60.554;2023-03-23T08:16:19;75463.69;;;-143.60;36.94
68329;BME280;55182;56.864;60.554;2023-03-23T08:19:02;75449.63;;;-143.60;36.83
68329;BME280;55182;56.864;60.554;2023-03-23T08:21:57;75447.59;;;-143.60;37.26
68329;BME280;55182;56.864;60.554;2023-03-23T08:24:37;75441.59;;;-143.60;36.65
68329;BME280;55182;56.864;60.554;2023-03-23T08:27:25;75427.50;;;-143.60;38.07
68329;BME280;55182;56.864;60.554;2023-03-23T08:30:15;75415.47;;;-143.60;37.70
68329;BME280;55182;56.864;60.554;2023-03-23T08:33:01;75405.41;;;-143.60;37.29
68329;BME280;55182;56.864;60.554;2023-03-23T08:35:59;75395.38;;;-143.60;37.02
68329;BME280;55182;56.864;60.554;2023-03-23T08:38:45;75391.34;;;-143.60;38.24
68329;BME280;55182;56.864;60.554;2023-03-23T08:41:26;75387.34;;;-143.60;37.36
68329;BME280;55182;56.864;60.554;2023-03-23T08:44:15;75371.25;;;-143.60;38.81
68329;BME280;55182;56.864;60.554;2023-03-23T08:46:41;75359.22;;;-143.60;36.56
68329;BME280;55182;56.864;60.554;2023-03-23T08:49:27;75349.16;;;-143.60;37.58
68329;BME280;55182;56.864;60.554;2023-03-23T08:52:18;75331.06;;;-143.60;36.66
68329;BME280;55182;56.864;60.554;2023-03-23T08:54:51;75333.09;;;-143.60;36.45
68329;BME280;55182;56.864;60.554;2023-03-23T08:57:35;75329.06;;;-143.60;37.41
68329;BME280;55182;56.864;60.554;2023-03-23T09:00:37;75302.94;;;-143.60;38.58
68329;BME280;55182;56.864;60.554;2023-03-23T09:03:12;75282.88;;;-143.60;37.09
68329;BME280;55182;56.864;60.554;2023-03-23T09:06:01;75276.84;;;-143.60;36.81
68329;BME280;55182;56.864;60.554;2023-03-23T09:08:44;75272.81;;;-143.60;36.44
68329;BME280;55182;56.864;60.554;2023-03-23T09:11:10;75262.78;;;-143.60;36.64
68329;BME280;55182;56.864;60.554;2023-03-23T09:13:36;75252.72;;;-143.60;37.22
68329;BME280;55182;56.864;60.554;2023-03-23T09:16:03;75248.72;;;-143.60;37.98
68329;BME280;55182;56.864;60.554;2023-03-23T09:18:29;75238.66;;;-143.60;37.53
68329;BME280;55182;56.864;60.554;2023-03-23T09:20:54;75226.59;;;-143.60;36.77
68329;BME280;55182;56.864;60.554;2023-03-23T09:23:20;75228.63;;;-143.60;37.26
68329;BME280;55182;56.864;60.554;2023-03-23T09:25:46;75226.59;;;-143.60;36.73
68329;BME280;55182;56.864;60.554;2023-03-23T09:28:12;75228.63;;;-143.60;36.99
68329;BME280;55182;56.864;60.554;2023-03-23T09:30:38;75222.59;;;-143.60;37.56
68329;BME280;55182;56.864;60.554;2023-03-23T09:33:05;75210.53;;;-143.60;37.43
68329;BME280;55182;56.864;60.554;2023-03-23T09:35:32;75204.50;;;-143.60;36.32
68329;BME280;55182;56.864;60.554;2023-03-23T09:37:57;75200.50;;;-143.60;36.77
68329;BME280;55182;56.864;60.554;2023-03-23T09:40:24;75198.47;;;-143.60;37.00
68329;BME280;55182;56.864;60.554;2023-03-23T09:42:56;75186.44;;;-143.60;36.71
68329;BME280;55182;56.864;60.554;2023-03-23T09:45:25;75190.44;;;-143.60;36.61
68329;BME280;55182;56.864;60.554;2023-03-23T09:50:37;75182.41;;;-143.60;36.53
68329;BME280;55182;56.864;60.554;2023-03-23T09:53:10;75174.38;;;-143.60;36.92
68329;BME280;55182;56.864;60.554;2023-03-23T09:55:39;75172.38;;;-143.60;35.86
68329;BME280;55182;56.864;60.554;2023-03-23T10:00:37;75150.25;;;-143.60;34.82
68329;BME280;55182;56.864;60.554;2023-03-23T10:08:05;75170.34;;;-143.60;35.91
68329;BME280;55182;56.864;60.554;2023-03-23T10:10:44;75172.38;;;-143.60;36.11
68329;BME280;55182;56.864;60.554;2023-03-23T10:16:07;75196.47;;;-143.60;35.80
68329;BME280;55182;56.864;60.554;2023-03-23T10:19:39;75196.47;;;-143.60;36.72
68329;BME280;55182;56.864;60.554;2023-03-23T10:21:30;75212.53;;;-143.60;35.94
68329;BME280;55182;56.864;60.554;2023-03-23T10:24:00;75218.56;;;-143.60;36.48
68329;BME280;55182;56.864;60.554;2023-03-23T10:28:59;75214.56;;;-143.60;36.75
68329;BME280;55182;56.864;60.554;2023-03-23T10:31:28;75218.56;;;-143.60;37.49
68329;BME280;55182;56.864;60.554;2023-03-23T10:33:57;75226.59;;;-143.60;37.83
68329;BME280;55182;56.864;60.554;2023-03-23T10:41:25;75214.56;;;-143.60;38.22
68329;BME280;55182;56.864;60.554;2023-03-23T10:43:51;75214.56;;;-143.60;38.02
68329;BME280;55182;56.864;60.554;2023-03-23T10:46:33;75208.53;;;-143.60;38.07
68329;BME280;55182;56.864;60.554;2023-03-23T10:49:02;75198.47;;;-143.60;38.03
68329;BME280;55182;56.864;60.554;2023-03-23T10:51:34;75194.47;;;-143.60;38.03
68329;BME280;55182;56.864;60.554;2023-03-23T10:54:01;75186.44;;;-143.60;38.46
68329;BME280;55182;56.864;60.554;2023-03-23T10:59:10;75182.41;;;-143.60;38.03
68329;BME280;55182;56.864;60.554;2023-03-23T11:01:36;75178.41;;;-143.60;38.51
68329;BME280;55182;56.864;60.554;2023-03-23T11:04:02;75170.34;;;-143.60;38.41
68329;BME280;55182;56.864;60.554;2023-03-23T11:06:32;75164.34;;;-143.60;38.87
68329;BME280;55182;56.864;60.554;2023-03-23T11:08:58;75150.25;;;-143.60;39.21
68329;BME280;55182;56.864;60.554;2023-03-23T11:11:32;75148.25;;;-143.60;38.37
68329;BME280;55182;56.864;60.554;2023-03-23T11:14:03;75142.22;;;-143.60;38.56
68329;BME280;55182;56.864;60.554;2023-03-23T11:16:41;75150.25;;;-143.60;38.18
68329;BME280;55182;56.864;60.554;2023-03-23T11:19:15;75146.25;;;-143.60;37.97
68329;BME280;55182;56.864;60.554;2023-03-23T11:21:45;75142.22;;;-143.60;38.07
68329;BME280;55182;56.864;60.554;2023-03-23T11:24:11;75138.22;;;-143.60;37.89
68329;BME280;55182;56.864;60.554;2023-03-23T11:26:37;75136.19;;;-143.60;38.09
68329;BME280;55182;56.864;60.554;2023-03-23T11:29:10;75134.19;;;-143.60;38.08
68329;BME280;55182;56.864;60.554;2023-03-23T11:31:40;75122.13;;;-143.60;38.81
68329;BME280;55182;56.864;60.554;2023-03-23T11:34:13;75120.13;;;-143.60;37.94
68329;BME280;55182;56.864;60.554;2023-03-23T11:36:40;75112.09;;;-143.60;37.27
68329;BME280;55182;56.864;60.554;2023-03-23T11:42:11;75102.06;;;-143.60;38.11
68329;BME280;55182;56.864;60.554;2023-03-23T11:44:41;75106.06;;;-143.60;37.02
68329;BME280;55182;56.864;60.554;2023-03-23T11:47:20;75098.03;;;-143.60;37.06
68329;BME280;55182;56.864;60.554;2023-03-23T11:49:55;75098.03;;;-143.60;37.17
68329;BME280;55182;56.864;60.554;2023-03-23T11:52:49;75098.03;;;-143.60;36.33
68329;BME280;55182;56.864;60.554;2023-03-23T11:57:55;75096.03;;;-143.60;36.04
68329;BME280;55182;56.864;60.554;2023-03-23T12:00:25;75090.00;;;-143.60;36.50
68329;BME280;55182;56.864;60.554;2023-03-23T12:02:54;75085.97;;;-143.60;35.91
68329;BME280;55182;56.864;60.554;2023-03-23T12:05:43;75079.94;;;-143.60;36.32
68329;BME280;55182;56.864;60.554;2023-03-23T12:08:17;75090.00;;;-143.60;36.84
68329;BME280;55182;56.864;60.554;2023-03-23T12:10:59;75085.97;;;-143.60;36.95
68329;BME280;55182;56.864;60.554;2023-03-23T12:19:16;75079.94;;;-143.60;37.24
68329;BME280;55182;56.864;60.554;2023-03-23T12:21:38;75077.94;;;-143.60;38.08
68329;BME280;55182;56.864;60.554;2023-03-23T12:29:14;75057.84;;;-143.60;38.11
68329;BME280;55182;56.864;60.554;2023-03-23T12:31:49;75025.72;;;-143.60;37.69
68329;BME280;55182;56.864;60.554;2023-03-23T12:34:23;74989.56;;;-143.60;36.59
68329;BME280;55182;56.864;60.554;2023-03-23T12:37:09;74949.38;;;-143.60;36.23
68329;BME280;55182;56.864;60.554;2023-03-23T12:44:46;74909.19;;;-143.60;35.96
68329;BME280;55182;56.864;60.554;2023-03-23T12:49:46;74905.19;;;-143.60;36.08
68329;BME280;55182;56.864;60.554;2023-03-23T12:52:15;74901.16;;;-143.60;36.18
68329;BME280;55182;56.864;60.554;2023-03-23T13:00:22;74889.09;;;-143.60;35.86
68329;BME280;55182;56.864;60.554;2023-03-23T13:07:57;74848.94;;;-143.60;35.10
68329;BME280;55182;56.864;60.554;2023-03-23T13:10:25;74858.97;;;-143.60;34.46
68329;BME280;55182;56.864;60.554;2023-03-23T13:12:52;74877.06;;;-143.60;34.62
68329;BME280;55182;56.864;60.554;2023-03-23T13:20:58;74963.44;;;-143.60;34.88
68329;BME280;55182;56.864;60.554;2023-03-23T13:23:30;74993.56;;;-143.60;35.20
68329;BME280;55182;56.864;60.554;2023-03-23T13:28:30;75033.75;;;-143.60;35.58
68329;BME280;55182;56.864;60.554;2023-03-23T13:33:24;75065.88;;;-143.60;35.93
68329;BME280;55182;56.864;60.554;2023-03-23T13:35:50;75071.91;;;-143.60;36.04
68329;BME280;55182;56.864;60.554;2023-03-23T13:38:23;75085.97;;;-143.60;36.23
68329;BME280;55182;56.864;60.554;2023-03-23T13:40:51;75092.00;;;-143.60;35.80
68329;BME280;55182;56.864;60.554;2023-03-23T13:43:36;75102.06;;;-143.60;36.27
68329;BME280;55182;56.864;60.554;2023-03-23T13:46:10;75110.09;;;-143.60;36.48
68329;BME280;55182;56.864;60.554;2023-03-23T13:48:47;75126.16;;;-143.60;36.45
68329;BME280;55182;56.864;60.554;2023-03-23T13:51:24;75136.19;;;-143.60;36.45
68329;BME280;55182;56.864;60.554;2023-03-23T13:53:50;75144.25;;;-143.60;36.69
68329;BME280;55182;56.864;60.554;2023-03-23T13:56:20;75150.25;;;-143.60;36.99
68329;BME280;55182;56.864;60.554;2023-03-23T13:58:47;75150.25;;;-143.60;36.65
68329;BME280;55182;56.864;60.554;2023-03-23T14:01:14;75154.28;;;-143.60;37.14
68329;BME280;55182;56.864;60.554;2023-03-23T14:03:41;75160.31;;;-143.60;36.84
68329;BME280;55182;56.864;60.554;2023-03-23T14:06:17;75174.38;;;-143.60;37.13
68329;BME280;55182;56.864;60.554;2023-03-23T14:09:16;75184.41;;;-143.60;37.48
68329;BME280;55182;56.864;60.554;2023-03-23T14:11:47;75188.44;;;-143.60;37.64
68329;BME280;55182;56.864;60.554;2023-03-23T14:14:14;75190.44;;;-143.60;37.85
68329;BME280;55182;56.864;60.554;2023-03-23T14:16:41;75200.50;;;-143.60;38.00
68329;BME280;55182;56.864;60.554;2023-03-23T14:19:23;75204.50;;;-143.60;37.90
68329;BME280;55182;56.864;60.554;2023-03-23T14:22:00;75216.56;;;-143.60;38.16